sensor_id;sensor_type;location;lat;lon;timestamp;temperature;humidity
33863;DHT22;20158;51.436;-2.742;2023-01-24T00:00:28;1.80;56.70
33863;DHT22;20158;51.436;-2.742;2023-01-24T00:02:54;1.80;56.80
33863;DHT22;20158;51.436;-2.742;2023-01-24T00:05:20;1.80;56.80
33863;DHT22;20158;51.436;-2.742;2023-01-24T00:07:46;1.80;56.80
33863;DHT22;20158;51.436;-2.742;2023-01-24T00:10:12;1.70;56.60
33863;DHT22;20158;51.436;-2.742;2023-01-24T00:12:38;1.70;56.60
33863;DHT22;20158;51.436;-2.742;2023-01-24T00:15:05;1.70;56.60
33863;DHT22;20158;51.436;-2.742;2023-01-24T00:17:31;1.70;56.70
33863;DHT22;20158;51.436;-2.742;2023-01-24T00:19:57;1.70;56.70
33863;DHT22;20158;51.436;-2.742;2023-01-24T00:22:23;1.60;56.50
33863;DHT22;20158;51.436;-2.742;2023-01-24T00:24:49;1.60;56.60
33863;DHT22;20158;51.436;-2.742;2023-01-24T00:27:16;1.60;56.60
33863;DHT22;20158;51.436;-2.742;2023-01-24T00:29:42;1.60;56.60
33863;DHT22;20158;51.436;-2.742;2023-01-24T00:32:09;1.60;56.60
33863;DHT22;20158;51.436;-2.742;2023-01-24T00:34:35;1.60;56.70
33863;DHT22;20158;51.436;-2.742;2023-01-24T00:37:01;1.50;56.50
33863;DHT22;20158;51.436;-2.742;2023-01-24T00:39:27;1.50;56.60
33863;DHT22;20158;51.436;-2.742;2023-01-24T00:41:53;1.50;56.60
33863;DHT22;20158;51.436;-2.742;2023-01-24T00:44:19;1.60;56.80
33863;DHT22;20158;51.436;-2.742;2023-01-24T00:46:45;1.50;56.60
33863;DHT22;20158;51.436;-2.742;2023-01-24T00:49:11;1.50;56.60
33863;DHT22;20158;51.436;-2.742;2023-01-24T00:51:37;1.50;56.60
33863;DHT22;20158;51.436;-2.742;2023-01-24T00:54:03;1.50;56.70
33863;DHT22;20158;51.436;-2.742;2023-01-24T00:56:29;1.50;56.60
33863;DHT22;20158;51.436;-2.742;2023-01-24T00:58:55;1.50;56.70
33863;DHT22;20158;51.436;-2.742;2023-01-24T01:01:21;1.50;56.70
33863;DHT22;20158;51.436;-2.742;2023-01-24T01:03:47;1.50;56.70
33863;DHT22;20158;51.436;-2.742;2023-01-24T01:06:14;1.50;56.70
33863;DHT22;20158;51.436;-2.742;2023-01-24T01:08:42;1.50;56.70
33863;DHT22;20158;51.436;-2.742;2023-01-24T01:11:08;1.50;56.70
33863;DHT22;20158;51.436;-2.742;2023-01-24T01:13:34;1.50;56.70
33863;DHT22;20158;51.436;-2.742;2023-01-24T01:16:09;1.50;56.80
33863;DHT22;20158;51.436;-2.742;2023-01-24T01:18:38;1.40;56.60
33863;DHT22;20158;51.436;-2.742;2023-01-24T01:21:05;1.50;57.30
33863;DHT22;20158;51.436;-2.742;2023-01-24T01:23:31;1.50;56.80
33863;DHT22;20158;51.436;-2.742;2023-01-24T01:26:08;1.40;56.60
33863;DHT22;20158;51.436;-2.742;2023-01-24T01:28:38;1.40;56.70
33863;DHT22;20158;51.436;-2.742;2023-01-24T01:31:04;1.40;56.70
33863;DHT22;20158;51.436;-2.742;2023-01-24T01:33:30;1.40;56.70
33863;DHT22;20158;51.436;-2.742;2023-01-24T01:35:56;1.40;56.70
33863;DHT22;20158;51.436;-2.742;2023-01-24T01:38:22;1.40;56.70
33863;DHT22;20158;51.436;-2.742;2023-01-24T01:40:50;1.40;56.70
33863;DHT22;20158;51.436;-2.742;2023-01-24T01:43:19;1.40;56.80
33863;DHT22;20158;51.436;-2.742;2023-01-24T01:45:50;1.40;56.80
33863;DHT22;20158;51.436;-2.742;2023-01-24T01:48:33;1.40;56.80
33863;DHT22;20158;51.436;-2.742;2023-01-24T01:53:50;1.30;56.70
33863;DHT22;20158;51.436;-2.742;2023-01-24T01:56:32;1.40;56.90
33863;DHT22;20158;51.436;-2.742;2023-01-24T01:59:04;1.40;56.90
33863;DHT22;20158;51.436;-2.742;2023-01-24T02:01:32;1.40;56.90
33863;DHT22;20158;51.436;-2.742;2023-01-24T02:04:24;1.40;56.90
33863;DHT22;20158;51.436;-2.742;2023-01-24T02:06:54;1.40;56.90
33863;DHT22;20158;51.436;-2.742;2023-01-24T02:09:27;1.40;56.90
33863;DHT22;20158;51.436;-2.742;2023-01-24T02:11:58;1.30;56.60
33863;DHT22;20158;51.436;-2.742;2023-01-24T02:14:27;1.30;56.60
33863;DHT22;20158;51.436;-2.742;2023-01-24T02:17:12;1.30;56.70
33863;DHT22;20158;51.436;-2.742;2023-01-24T02:25:39;1.20;56.60
33863;DHT22;20158;51.436;-2.742;2023-01-24T02:28:07;1.30;56.80
33863;DHT22;20158;51.436;-2.742;2023-01-24T02:30:36;1.20;56.60
33863;DHT22;20158;51.436;-2.742;2023-01-24T02:33:11;1.20;56.70
33863;DHT22;20158;51.436;-2.742;2023-01-24T02:35:38;1.20;56.80
33863;DHT22;20158;51.436;-2.742;2023-01-24T02:38:09;1.20;56.80
33863;DHT22;20158;51.436;-2.742;2023-01-24T02:40:37;1.10;56.60
33863;DHT22;20158;51.436;-2.742;2023-01-24T02:43:04;1.20;56.80
33863;DHT22;20158;51.436;-2.742;2023-01-24T02:45:33;1.10;56.70
33863;DHT22;20158;51.436;-2.742;2023-01-24T02:48:00;1.10;56.70
33863;DHT22;20158;51.436;-2.742;2023-01-24T02:50:29;1.10;56.70
33863;DHT22;20158;51.436;-2.742;2023-01-24T02:53:15;1.10;56.70
33863;DHT22;20158;51.436;-2.742;2023-01-24T02:55:59;1.10;56.70
33863;DHT22;20158;51.436;-2.742;2023-01-24T02:58:44;1.10;56.80
33863;DHT22;20158;51.436;-2.742;2023-01-24T03:01:10;1.00;56.60
33863;DHT22;20158;51.436;-2.742;2023-01-24T03:03:37;1.00;56.60
33863;DHT22;20158;51.436;-2.742;2023-01-24T03:06:03;1.00;56.70
33863;DHT22;20158;51.436;-2.742;2023-01-24T03:08:34;1.00;56.70
33863;DHT22;20158;51.436;-2.742;2023-01-24T03:11:04;1.00;56.70
33863;DHT22;20158;51.436;-2.742;2023-01-24T03:13:32;1.00;56.70
33863;DHT22;20158;51.436;-2.742;2023-01-24T03:16:17;0.90;56.50
33863;DHT22;20158;51.436;-2.742;2023-01-24T03:19:02;1.00;56.70
33863;DHT22;20158;51.436;-2.742;2023-01-24T03:21:47;0.90;56.60
33863;DHT22;20158;51.436;-2.742;2023-01-24T03:24:31;0.90;56.60
33863;DHT22;20158;51.436;-2.742;2023-01-24T03:27:16;0.80;56.40
33863;DHT22;20158;51.436;-2.742;2023-01-24T03:30:03;0.80;56.40
33863;DHT22;20158;51.436;-2.742;2023-01-24T03:32:48;0.80;56.40
33863;DHT22;20158;51.436;-2.742;2023-01-24T03:35:35;0.80;56.50
33863;DHT22;20158;51.436;-2.742;2023-01-24T03:38:01;0.80;56.50
33863;DHT22;20158;51.436;-2.742;2023-01-24T03:40:51;0.70;56.30
33863;DHT22;20158;51.436;-2.742;2023-01-24T03:43:19;0.70;56.40
33863;DHT22;20158;51.436;-2.742;2023-01-24T03:45:45;0.70;56.40
33863;DHT22;20158;51.436;-2.742;2023-01-24T03:48:26;0.60;56.20
33863;DHT22;20158;51.436;-2.742;2023-01-24T03:51:00;0.70;56.40
33863;DHT22;20158;51.436;-2.742;2023-01-24T03:53:44;0.60;56.30
33863;DHT22;20158;51.436;-2.742;2023-01-24T03:56:11;0.60;56.30
33863;DHT22;20158;51.436;-2.742;2023-01-24T03:58:43;0.50;56.20
33863;DHT22;20158;51.436;-2.742;2023-01-24T04:01:12;0.60;56.30
33863;DHT22;20158;51.436;-2.742;2023-01-24T04:03:56;0.50;56.10
33863;DHT22;20158;51.436;-2.742;2023-01-24T04:06:23;0.50;56.10
33863;DHT22;20158;51.436;-2.742;2023-01-24T04:08:49;0.50;56.20
33863;DHT22;20158;51.436;-2.742;2023-01-24T04:11:17;0.50;56.20
33863;DHT22;20158;51.436;-2.742;2023-01-24T04:13:43;0.50;56.80
33863;DHT22;20158;51.436;-2.742;2023-01-24T04:16:09;0.50;56.20
33863;DHT22;20158;51.436;-2.742;2023-01-24T04:18:48;0.40;56.00
33863;DHT22;20158;51.436;-2.742;2023-01-24T04:21:14;0.40;56.00
33863;DHT22;20158;51.436;-2.742;2023-01-24T04:23:40;0.40;56.00
33863;DHT22;20158;51.436;-2.742;2023-01-24T04:26:06;0.40;56.00
33863;DHT22;20158;51.436;-2.742;2023-01-24T04:28:33;0.40;56.10
33863;DHT22;20158;51.436;-2.742;2023-01-24T04:31:02;0.30;55.90
33863;DHT22;20158;51.436;-2.742;2023-01-24T04:33:51;0.30;56.00
33863;DHT22;20158;51.436;-2.742;2023-01-24T04:36:17;0.30;55.90
33863;DHT22;20158;51.436;-2.742;2023-01-24T04:38:43;0.30;55.90
33863;DHT22;20158;51.436;-2.742;2023-01-24T04:41:15;0.30;56.00
33863;DHT22;20158;51.436;-2.742;2023-01-24T04:43:42;0.30;56.00
33863;DHT22;20158;51.436;-2.742;2023-01-24T04:46:09;0.30;56.00
33863;DHT22;20158;51.436;-2.742;2023-01-24T04:48:47;0.20;55.80
33863;DHT22;20158;51.436;-2.742;2023-01-24T04:51:13;0.20;55.80
33863;DHT22;20158;51.436;-2.742;2023-01-24T04:53:40;0.20;55.80
33863;DHT22;20158;51.436;-2.742;2023-01-24T04:56:06;0.20;55.80
33863;DHT22;20158;51.436;-2.742;2023-01-24T04:58:33;0.20;55.80
33863;DHT22;20158;51.436;-2.742;2023-01-24T05:01:01;0.10;55.70
33863;DHT22;20158;51.436;-2.742;2023-01-24T05:03:29;0.10;55.70
33863;DHT22;20158;51.436;-2.742;2023-01-24T05:05:55;0.10;55.70
33863;DHT22;20158;51.436;-2.742;2023-01-24T05:08:22;0.10;55.70
33863;DHT22;20158;51.436;-2.742;2023-01-24T05:10:48;0.10;55.80
33863;DHT22;20158;51.436;-2.742;2023-01-24T05:13:15;0.10;55.80
33863;DHT22;20158;51.436;-2.742;2023-01-24T05:15:49;0.10;55.80
33863;DHT22;20158;51.436;-2.742;2023-01-24T05:18:15;0.00;55.60
33863;DHT22;20158;51.436;-2.742;2023-01-24T05:20:42;0.00;55.60
33863;DHT22;20158;51.436;-2.742;2023-01-24T05:23:08;0.00;55.60
33863;DHT22;20158;51.436;-2.742;2023-01-24T05:25:39;0.00;55.60
33863;DHT22;20158;51.436;-2.742;2023-01-24T05:28:05;0.00;55.60
33863;DHT22;20158;51.436;-2.742;2023-01-24T05:30:35;0.00;55.60
33863;DHT22;20158;51.436;-2.742;2023-01-24T05:33:11;0.00;55.70
33863;DHT22;20158;51.436;-2.742;2023-01-24T05:35:38;0.00;55.70
33863;DHT22;20158;51.436;-2.742;2023-01-24T05:38:06;0.00;55.70
33863;DHT22;20158;51.436;-2.742;2023-01-24T05:40:33;0.00;55.70
33863;DHT22;20158;51.436;-2.742;2023-01-24T05:42:59;-0.10;56.10
33863;DHT22;20158;51.436;-2.742;2023-01-24T05:45:25;-0.10;55.50
33863;DHT22;20158;51.436;-2.742;2023-01-24T05:47:52;-0.10;55.60
33863;DHT22;20158;51.436;-2.742;2023-01-24T05:50:20;-0.10;55.60
33863;DHT22;20158;51.436;-2.742;2023-01-24T05:53:06;-0.10;55.60
33863;DHT22;20158;51.436;-2.742;2023-01-24T05:55:33;-0.10;55.60
33863;DHT22;20158;51.436;-2.742;2023-01-24T05:57:59;-0.20;55.40
33863;DHT22;20158;51.436;-2.742;2023-01-24T06:00:36;-0.20;55.40
33863;DHT22;20158;51.436;-2.742;2023-01-24T06:03:25;-0.20;55.40
33863;DHT22;20158;51.436;-2.742;2023-01-24T06:05:54;-0.20;55.40
33863;DHT22;20158;51.436;-2.742;2023-01-24T06:08:22;-0.20;55.40
33863;DHT22;20158;51.436;-2.742;2023-01-24T06:10:48;-0.30;55.20
33863;DHT22;20158;51.436;-2.742;2023-01-24T06:13:16;-0.30;55.30
33863;DHT22;20158;51.436;-2.742;2023-01-24T06:15:42;-0.20;55.50
33863;DHT22;20158;51.436;-2.742;2023-01-24T06:18:14;-0.20;55.50
33863;DHT22;20158;51.436;-2.742;2023-01-24T06:20:41;-0.20;55.50
33863;DHT22;20158;51.436;-2.742;2023-01-24T06:23:10;-0.30;55.30
33863;DHT22;20158;51.436;-2.742;2023-01-24T06:25:42;-0.30;55.30
33863;DHT22;20158;51.436;-2.742;2023-01-24T06:28:09;-0.30;55.30
33863;DHT22;20158;51.436;-2.742;2023-01-24T06:30:36;-0.30;55.30
33863;DHT22;20158;51.436;-2.742;2023-01-24T06:36:17;-0.30;55.20
33863;DHT22;20158;51.436;-2.742;2023-01-24T06:38:45;-0.30;55.30
33863;DHT22;20158;51.436;-2.742;2023-01-24T06:41:16;-0.40;55.60
33863;DHT22;20158;51.436;-2.742;2023-01-24T06:43:43;-0.40;55.00
33863;DHT22;20158;51.436;-2.742;2023-01-24T06:46:11;-0.40;55.00
33863;DHT22;20158;51.436;-2.742;2023-01-24T06:48:37;-0.40;55.20
33863;DHT22;20158;51.436;-2.742;2023-01-24T06:51:04;-0.30;55.50
33863;DHT22;20158;51.436;-2.742;2023-01-24T06:53:31;-0.20;55.60
33863;DHT22;20158;51.436;-2.742;2023-01-24T06:55:57;-0.30;55.40
33863;DHT22;20158;51.436;-2.742;2023-01-24T06:58:23;-0.30;55.30
33863;DHT22;20158;51.436;-2.742;2023-01-24T07:00:51;-0.20;55.50
33863;DHT22;20158;51.436;-2.742;2023-01-24T07:03:16;-0.20;55.50
33863;DHT22;20158;51.436;-2.742;2023-01-24T07:05:42;-0.30;55.30
33863;DHT22;20158;51.436;-2.742;2023-01-24T07:08:08;-0.30;55.30
33863;DHT22;20158;51.436;-2.742;2023-01-24T07:10:35;-0.30;55.40
33863;DHT22;20158;51.436;-2.742;2023-01-24T07:13:01;-0.30;55.40
33863;DHT22;20158;51.436;-2.742;2023-01-24T07:15:27;-0.40;55.20
33863;DHT22;20158;51.436;-2.742;2023-01-24T07:17:53;-0.40;55.20
33863;DHT22;20158;51.436;-2.742;2023-01-24T07:20:19;-0.30;55.40
33863;DHT22;20158;51.436;-2.742;2023-01-24T07:22:46;-0.40;55.20
33863;DHT22;20158;51.436;-2.742;2023-01-24T07:25:14;-0.40;55.20
33863;DHT22;20158;51.436;-2.742;2023-01-24T07:27:45;-0.40;55.20
33863;DHT22;20158;51.436;-2.742;2023-01-24T07:30:12;-0.50;55.10
33863;DHT22;20158;51.436;-2.742;2023-01-24T07:32:39;-0.50;55.10
33863;DHT22;20158;51.436;-2.742;2023-01-24T07:35:05;-0.40;55.30
33863;DHT22;20158;51.436;-2.742;2023-01-24T07:37:32;-0.40;55.40
33863;DHT22;20158;51.436;-2.742;2023-01-24T07:39:58;-0.50;55.10
33863;DHT22;20158;51.436;-2.742;2023-01-24T07:42:24;-0.50;55.10
33863;DHT22;20158;51.436;-2.742;2023-01-24T07:44:50;-0.50;55.10
33863;DHT22;20158;51.436;-2.742;2023-01-24T07:47:16;-0.50;55.10
33863;DHT22;20158;51.436;-2.742;2023-01-24T07:49:42;-0.50;55.10
33863;DHT22;20158;51.436;-2.742;2023-01-24T07:52:08;-0.50;55.10
33863;DHT22;20158;51.436;-2.742;2023-01-24T07:54:34;-0.50;55.10
33863;DHT22;20158;51.436;-2.742;2023-01-24T07:57:00;-0.60;55.00
33863;DHT22;20158;51.436;-2.742;2023-01-24T07:59:26;-0.60;55.00
33863;DHT22;20158;51.436;-2.742;2023-01-24T08:01:52;-0.60;55.50
33863;DHT22;20158;51.436;-2.742;2023-01-24T08:04:18;-0.60;55.00
33863;DHT22;20158;51.436;-2.742;2023-01-24T08:06:44;-0.60;55.00
33863;DHT22;20158;51.436;-2.742;2023-01-24T08:09:29;-0.60;55.00
33863;DHT22;20158;51.436;-2.742;2023-01-24T08:11:55;-0.60;55.00
33863;DHT22;20158;51.436;-2.742;2023-01-24T08:14:22;-0.60;55.00
33863;DHT22;20158;51.436;-2.742;2023-01-24T08:16:49;-0.60;55.00
33863;DHT22;20158;51.436;-2.742;2023-01-24T08:19:15;-0.60;55.00
33863;DHT22;20158;51.436;-2.742;2023-01-24T08:21:41;-0.60;54.90
33863;DHT22;20158;51.436;-2.742;2023-01-24T08:24:07;-0.60;54.90
33863;DHT22;20158;51.436;-2.742;2023-01-24T08:26:33;-0.60;54.90
33863;DHT22;20158;51.436;-2.742;2023-01-24T08:28:59;-0.60;54.90
33863;DHT22;20158;51.436;-2.742;2023-01-24T08:31:25;-0.50;55.10
33863;DHT22;20158;51.436;-2.742;2023-01-24T08:33:51;-0.60;54.90
33863;DHT22;20158;51.436;-2.742;2023-01-24T08:36:18;-0.60;55.40
33863;DHT22;20158;51.436;-2.742;2023-01-24T08:38:47;-0.50;55.00
33863;DHT22;20158;51.436;-2.742;2023-01-24T08:41:13;-0.50;55.00
33863;DHT22;20158;51.436;-2.742;2023-01-24T08:43:39;-0.50;54.90
33863;DHT22;20158;51.436;-2.742;2023-01-24T08:46:05;-0.50;54.90
33863;DHT22;20158;51.436;-2.742;2023-01-24T08:48:31;-0.50;54.90
33863;DHT22;20158;51.436;-2.742;2023-01-24T08:50:57;-0.50;54.80
33863;DHT22;20158;51.436;-2.742;2023-01-24T08:53:23;-0.50;54.80
33863;DHT22;20158;51.436;-2.742;2023-01-24T08:55:49;-0.40;55.00
33863;DHT22;20158;51.436;-2.742;2023-01-24T08:58:16;-0.40;54.90
33863;DHT22;20158;51.436;-2.742;2023-01-24T09:00:42;-0.40;54.90
33863;DHT22;20158;51.436;-2.742;2023-01-24T09:03:11;-0.40;54.90
33863;DHT22;20158;51.436;-2.742;2023-01-24T09:05:39;-0.40;54.90
33863;DHT22;20158;51.436;-2.742;2023-01-24T09:08:05;-0.40;54.80
33863;DHT22;20158;51.436;-2.742;2023-01-24T09:10:31;-0.40;54.80
33863;DHT22;20158;51.436;-2.742;2023-01-24T09:12:57;-0.30;55.00
33863;DHT22;20158;51.436;-2.742;2023-01-24T09:15:23;-0.30;54.90
33863;DHT22;20158;51.436;-2.742;2023-01-24T09:17:49;-0.30;54.90
33863;DHT22;20158;51.436;-2.742;2023-01-24T09:20:15;-0.20;55.10
33863;DHT22;20158;51.436;-2.742;2023-01-24T09:22:42;-0.20;55.00
33863;DHT22;20158;51.436;-2.742;2023-01-24T09:25:08;-0.20;55.00
33863;DHT22;20158;51.436;-2.742;2023-01-24T09:27:35;-0.20;55.00
33863;DHT22;20158;51.436;-2.742;2023-01-24T09:30:02;-0.20;55.50
33863;DHT22;20158;51.436;-2.742;2023-01-24T09:32:28;-0.10;55.10
33863;DHT22;20158;51.436;-2.742;2023-01-24T09:34:54;-0.10;55.10
33863;DHT22;20158;51.436;-2.742;2023-01-24T09:37:21;0.00;55.30
33863;DHT22;20158;51.436;-2.742;2023-01-24T09:39:48;0.00;55.20
33863;DHT22;20158;51.436;-2.742;2023-01-24T09:47:51;0.10;55.30
33863;DHT22;20158;51.436;-2.742;2023-01-24T09:50:41;0.10;55.20
33863;DHT22;20158;51.436;-2.742;2023-01-24T09:53:18;0.10;55.10
33863;DHT22;20158;51.436;-2.742;2023-01-24T09:55:46;0.20;55.30
33863;DHT22;20158;51.436;-2.742;2023-01-24T09:58:34;0.20;55.30
33863;DHT22;20158;51.436;-2.742;2023-01-24T10:01:12;0.30;55.50
33863;DHT22;20158;51.436;-2.742;2023-01-24T10:03:39;0.30;55.40
33863;DHT22;20158;51.436;-2.742;2023-01-24T10:06:15;0.30;55.30
33863;DHT22;20158;51.436;-2.742;2023-01-24T10:08:57;0.40;55.50
33863;DHT22;20158;51.436;-2.742;2023-01-24T10:22:24;0.60;55.70
33863;DHT22;20158;51.436;-2.742;2023-01-24T10:25:02;0.70;55.90
33863;DHT22;20158;51.436;-2.742;2023-01-24T10:27:38;0.70;55.80
33863;DHT22;20158;51.436;-2.742;2023-01-24T10:30:46;0.80;56.00
33863;DHT22;20158;51.436;-2.742;2023-01-24T10:33:18;0.80;56.10
33863;DHT22;20158;51.436;-2.742;2023-01-24T10:36:03;0.80;56.00
33863;DHT22;20158;51.436;-2.742;2023-01-24T10:38:31;0.90;56.20
33863;DHT22;20158;51.436;-2.742;2023-01-24T10:41:19;0.90;56.10
33863;DHT22;20158;51.436;-2.742;2023-01-24T10:43:52;1.00;56.40
33863;DHT22;20158;51.436;-2.742;2023-01-24T10:46:25;1.10;56.50
33863;DHT22;20158;51.436;-2.742;2023-01-24T10:48:57;1.10;56.50
33863;DHT22;20158;51.436;-2.742;2023-01-24T10:51:24;1.20;56.50
33863;DHT22;20158;51.436;-2.742;2023-01-24T10:53:50;1.20;56.50
33863;DHT22;20158;51.436;-2.742;2023-01-24T10:56:21;1.20;56.50
33863;DHT22;20158;51.436;-2.742;2023-01-24T10:59:04;1.30;56.70
33863;DHT22;20158;51.436;-2.742;2023-01-24T11:01:43;1.30;56.80
33863;DHT22;20158;51.436;-2.742;2023-01-24T11:04:26;1.40;56.90
33863;DHT22;20158;51.436;-2.742;2023-01-24T11:06:53;1.40;56.90
33863;DHT22;20158;51.436;-2.742;2023-01-24T11:09:39;1.50;57.00
33863;DHT22;20158;51.436;-2.742;2023-01-24T11:12:13;1.50;57.10
33863;DHT22;20158;51.436;-2.742;2023-01-24T11:14:39;1.60;57.20
33863;DHT22;20158;51.436;-2.742;2023-01-24T11:17:28;1.60;57.20
33863;DHT22;20158;51.436;-2.742;2023-01-24T11:20:17;1.70;57.50
33863;DHT22;20158;51.436;-2.742;2023-01-24T11:22:49;1.70;57.40
33863;DHT22;20158;51.436;-2.742;2023-01-24T11:25:16;1.80;57.50
33863;DHT22;20158;51.436;-2.742;2023-01-24T11:27:47;1.90;57.70
33863;DHT22;20158;51.436;-2.742;2023-01-24T11:32:55;1.90;57.70
33863;DHT22;20158;51.436;-2.742;2023-01-24T11:35:26;2.00;57.90
33863;DHT22;20158;51.436;-2.742;2023-01-24T11:41:10;2.10;58.10
33863;DHT22;20158;51.436;-2.742;2023-01-24T11:49:14;2.20;58.20
33863;DHT22;20158;51.436;-2.742;2023-01-24T11:57:29;2.50;58.90
33863;DHT22;20158;51.436;-2.742;2023-01-24T12:06:10;2.70;58.90
33863;DHT22;20158;51.436;-2.742;2023-01-24T12:12:18;2.80;59.10
33863;DHT22;20158;51.436;-2.742;2023-01-24T12:23:55;3.00;59.40
33863;DHT22;20158;51.436;-2.742;2023-01-24T12:26:08;3.00;59.40
33863;DHT22;20158;51.436;-2.742;2023-01-24T12:31:45;3.10;59.70
33863;DHT22;20158;51.436;-2.742;2023-01-24T12:34:34;3.10;59.70
33863;DHT22;20158;51.436;-2.742;2023-01-24T12:40:07;3.20;59.80
33863;DHT22;20158;51.436;-2.742;2023-01-24T12:42:48;3.30;59.90
33863;DHT22;20158;51.436;-2.742;2023-01-24T12:45:34;3.30;59.90
33863;DHT22;20158;51.436;-2.742;2023-01-24T12:48:36;3.40;60.10
33863;DHT22;20158;51.436;-2.742;2023-01-24T12:54:18;3.50;60.30
33863;DHT22;20158;51.436;-2.742;2023-01-24T12:56:59;3.50;60.30
33863;DHT22;20158;51.436;-2.742;2023-01-24T12:59:29;3.60;60.40
33863;DHT22;20158;51.436;-2.742;2023-01-24T13:13:21;3.80;60.60
33863;DHT22;20158;51.436;-2.742;2023-01-24T13:19:10;3.90;60.80
33863;DHT22;20158;51.436;-2.742;2023-01-24T13:30:02;4.10;61.00
33863;DHT22;20158;51.436;-2.742;2023-01-24T13:32:32;4.10;61.00
33863;DHT22;20158;51.436;-2.742;2023-01-24T13:35:15;4.10;61.00
33863;DHT22;20158;51.436;-2.742;2023-01-24T13:37:52;4.10;61.10
33863;DHT22;20158;51.436;-2.742;2023-01-24T13:40:27;4.20;61.30
33863;DHT22;20158;51.436;-2.742;2023-01-24T13:42:57;4.20;61.20
33863;DHT22;20158;51.436;-2.742;2023-01-24T13:47:53;4.30;61.40
33863;DHT22;20158;51.436;-2.742;2023-01-24T13:50:24;4.30;61.30
33863;DHT22;20158;51.436;-2.742;2023-01-24T13:52:58;4.30;61.30
33863;DHT22;20158;51.436;-2.742;2023-01-24T14:00:57;4.50;61.50
33863;DHT22;20158;51.436;-2.742;2023-01-24T14:03:37;4.50;61.40
33863;DHT22;20158;51.436;-2.742;2023-01-24T14:06:07;4.60;61.60
33863;DHT22;20158;51.436;-2.742;2023-01-24T14:08:50;4.60;62.00
33863;DHT22;20158;51.436;-2.742;2023-01-24T14:11:22;4.60;61.50
33863;DHT22;20158;51.436;-2.742;2023-01-24T14:19:04;4.70;61.70
33863;DHT22;20158;51.436;-2.742;2023-01-24T14:21:52;4.70;61.60
33863;DHT22;20158;51.436;-2.742;2023-01-24T14:24:23;4.70;61.70
33863;DHT22;20158;51.436;-2.742;2023-01-24T14:26:52;4.70;61.60
33863;DHT22;20158;51.436;-2.742;2023-01-24T14:29:18;4.70;61.60
33863;DHT22;20158;51.436;-2.742;2023-01-24T14:31:48;4.70;61.60
33863;DHT22;20158;51.436;-2.742;2023-01-24T14:37:01;4.80;61.80
33863;DHT22;20158;51.436;-2.742;2023-01-24T14:39:27;4.80;61.70
33863;DHT22;20158;51.436;-2.742;2023-01-24T14:41:57;4.80;61.70
33863;DHT22;20158;51.436;-2.742;2023-01-24T14:44:28;4.70;61.60
33863;DHT22;20158;51.436;-2.742;2023-01-24T14:47:00;4.80;61.70
33863;DHT22;20158;51.436;-2.742;2023-01-24T14:49:43;4.80;61.70
33863;DHT22;20158;51.436;-2.742;2023-01-24T14:52:37;4.80;61.70
33863;DHT22;20158;51.436;-2.742;2023-01-24T14:57:56;4.80;61.60
33863;DHT22;20158;51.436;-2.742;2023-01-24T15:00:22;4.90;61.70
33863;DHT22;20158;51.436;-2.742;2023-01-24T15:02:54;4.90;61.80
33863;DHT22;20158;51.436;-2.742;2023-01-24T15:05:27;4.90;61.70
33863;DHT22;20158;51.436;-2.742;2023-01-24T15:07:55;4.90;61.70
33863;DHT22;20158;51.436;-2.742;2023-01-24T15:12:52;4.90;61.70
33863;DHT22;20158;51.436;-2.742;2023-01-24T15:15:19;4.90;61.80
33863;DHT22;20158;51.436;-2.742;2023-01-24T15:17:47;4.90;61.80
33863;DHT22;20158;51.436;-2.742;2023-01-24T15:20:18;4.90;61.80
33863;DHT22;20158;51.436;-2.742;2023-01-24T15:22:49;4.90;61.80
33863;DHT22;20158;51.436;-2.742;2023-01-24T15:25:26;4.90;61.80
33863;DHT22;20158;51.436;-2.742;2023-01-24T15:27:52;4.90;61.70
33863;DHT22;20158;51.436;-2.742;2023-01-24T15:38:23;4.80;61.60
33863;DHT22;20158;51.436;-2.742;2023-01-24T15:40:53;4.80;61.70
33863;DHT22;20158;51.436;-2.742;2023-01-24T15:54:37;4.70;61.70
33863;DHT22;20158;51.436;-2.742;2023-01-24T15:57:28;4.60;61.60
33863;DHT22;20158;51.436;-2.742;2023-01-24T16:02:21;4.60;61.70
33863;DHT22;20158;51.436;-2.742;2023-01-24T16:04:47;4.60;61.70
33863;DHT22;20158;51.436;-2.742;2023-01-24T16:07:15;4.60;61.80
33863;DHT22;20158;51.436;-2.742;2023-01-24T16:09:41;4.50;61.70
33863;DHT22;20158;51.436;-2.742;2023-01-24T16:12:12;4.50;61.70
33863;DHT22;20158;51.436;-2.742;2023-01-24T16:14:42;4.50;61.80
33863;DHT22;20158;51.436;-2.742;2023-01-24T16:17:10;4.50;61.80
33863;DHT22;20158;51.436;-2.742;2023-01-24T16:19:36;4.50;61.80
33863;DHT22;20158;51.436;-2.742;2023-01-24T16:22:02;4.50;61.80
33863;DHT22;20158;51.436;-2.742;2023-01-24T16:24:28;4.40;61.60
33863;DHT22;20158;51.436;-2.742;2023-01-24T16:26:55;4.50;61.80
33863;DHT22;20158;51.436;-2.742;2023-01-24T16:29:25;4.40;61.60
33863;DHT22;20158;51.436;-2.742;2023-01-24T16:31:51;4.40;61.70
33863;DHT22;20158;51.436;-2.742;2023-01-24T16:34:17;4.40;61.70
33863;DHT22;20158;51.436;-2.742;2023-01-24T16:36:44;4.30;61.60
33863;DHT22;20158;51.436;-2.742;2023-01-24T16:39:19;4.30;61.60
33863;DHT22;20158;51.436;-2.742;2023-01-24T16:41:47;4.20;61.60
33863;DHT22;20158;51.436;-2.742;2023-01-24T16:44:14;4.20;61.60
33863;DHT22;20158;51.436;-2.742;2023-01-24T16:46:46;4.20;61.70
33863;DHT22;20158;51.436;-2.742;2023-01-24T16:49:13;4.10;61.60
33863;DHT22;20158;51.436;-2.742;2023-01-24T16:51:38;4.10;61.60
33863;DHT22;20158;51.436;-2.742;2023-01-24T16:54:04;4.00;61.50
33863;DHT22;20158;51.436;-2.742;2023-01-24T16:56:31;4.00;61.60
33863;DHT22;20158;51.436;-2.742;2023-01-24T16:58:57;4.00;61.60
33863;DHT22;20158;51.436;-2.742;2023-01-24T17:01:23;3.90;61.50
33863;DHT22;20158;51.436;-2.742;2023-01-24T17:03:50;3.80;61.50
33863;DHT22;20158;51.436;-2.742;2023-01-24T17:06:18;3.80;61.60
33863;DHT22;20158;51.436;-2.742;2023-01-24T17:08:44;3.80;61.90
33863;DHT22;20158;51.436;-2.742;2023-01-24T17:11:10;3.80;62.00
33863;DHT22;20158;51.436;-2.742;2023-01-24T17:13:37;3.90;62.20
33863;DHT22;20158;51.436;-2.742;2023-01-24T17:16:05;3.90;62.10
33863;DHT22;20158;51.436;-2.742;2023-01-24T17:18:32;3.90;62.10
33863;DHT22;20158;51.436;-2.742;2023-01-24T17:21:04;3.80;61.90
33863;DHT22;20158;51.436;-2.742;2023-01-24T17:23:35;3.80;61.90
33863;DHT22;20158;51.436;-2.742;2023-01-24T17:26:04;3.70;61.80
33863;DHT22;20158;51.436;-2.742;2023-01-24T17:28:31;3.70;61.80
33863;DHT22;20158;51.436;-2.742;2023-01-24T17:30:57;3.60;61.70
33863;DHT22;20158;51.436;-2.742;2023-01-24T17:33:24;3.60;61.80
33863;DHT22;20158;51.436;-2.742;2023-01-24T17:35:50;3.50;61.70
33863;DHT22;20158;51.436;-2.742;2023-01-24T17:38:16;3.50;61.70
33863;DHT22;20158;51.436;-2.742;2023-01-24T17:40:42;3.40;61.60
33863;DHT22;20158;51.436;-2.742;2023-01-24T17:43:08;3.30;61.50
33863;DHT22;20158;51.436;-2.742;2023-01-24T17:45:34;3.20;61.40
33863;DHT22;20158;51.436;-2.742;2023-01-24T17:48:00;3.20;61.50
33863;DHT22;20158;51.436;-2.742;2023-01-24T17:50:26;3.20;61.60
33863;DHT22;20158;51.436;-2.742;2023-01-24T17:52:52;3.10;61.50
33863;DHT22;20158;51.436;-2.742;2023-01-24T17:55:18;3.10;61.50
33863;DHT22;20158;51.436;-2.742;2023-01-24T17:57:44;3.10;61.60
33863;DHT22;20158;51.436;-2.742;2023-01-24T18:00:10;3.00;61.40
33863;DHT22;20158;51.436;-2.742;2023-01-24T18:02:39;2.90;61.30
33863;DHT22;20158;51.436;-2.742;2023-01-24T18:05:05;2.90;61.30